sensor_id;sensor_type;location;lat;lon;timestamp;P1;durP1;ratioP1;P2;durP2;ratioP2
12076;SDS011;12420;42.676;23.262;2022-07-11T00:02:19;1.87;;;1.70;;
12076;SDS011;12420;42.676;23.262;2022-07-11T00:04:46;1.60;;;1.50;;
12076;SDS011;12420;42.676;23.262;2022-07-11T00:07:13;1.60;;;1.43;;
12076;SDS011;12420;42.676;23.262;2022-07-11T00:09:42;1.70;;;1.60;;
12076;SDS011;12420;42.676;23.262;2022-07-11T00:12:09;1.60;;;1.50;;
12076;SDS011;12420;42.676;23.262;2022-07-11T00:14:37;2.87;;;1.73;;
12076;SDS011;12420;42.676;23.262;2022-07-11T00:17:04;2.30;;;2.10;;
12076;SDS011;12420;42.676;23.262;2022-07-11T00:19:33;2.53;;;1.60;;
12076;SDS011;12420;42.676;23.262;2022-07-11T00:22:01;1.50;;;1.40;;
12076;SDS011;12420;42.676;23.262;2022-07-11T00:24:28;1.60;;;1.50;;
12076;SDS011;12420;42.676;23.262;2022-07-11T00:26:55;1.97;;;1.50;;
12076;SDS011;12420;42.676;23.262;2022-07-11T00:29:22;1.57;;;1.53;;
12076;SDS011;12420;42.676;23.262;2022-07-11T00:31:49;2.67;;;1.50;;
12076;SDS011;12420;42.676;23.262;2022-07-11T00:34:16;4.67;;;1.90;;
12076;SDS011;12420;42.676;23.262;2022-07-11T00:36:45;2.43;;;2.00;;
12076;SDS011;12420;42.676;23.262;2022-07-11T00:39:11;2.70;;;1.70;;
12076;SDS011;12420;42.676;23.262;2022-07-11T00:41:38;1.80;;;1.70;;
12076;SDS011;12420;42.676;23.262;2022-07-11T00:44:05;2.93;;;1.60;;
12076;SDS011;12420;42.676;23.262;2022-07-11T00:46:34;1.73;;;1.63;;
12076;SDS011;12420;42.676;23.262;2022-07-11T00:49:01;1.70;;;1.60;;
12076;SDS011;12420;42.676;23.262;2022-07-11T00:51:28;1.70;;;1.60;;
12076;SDS011;12420;42.676;23.262;2022-07-11T00:53:58;2.00;;;1.90;;
12076;SDS011;12420;42.676;23.262;2022-07-11T00:56:27;2.00;;;1.73;;
12076;SDS011;12420;42.676;23.262;2022-07-11T00:58:56;2.27;;;1.70;;
12076;SDS011;12420;42.676;23.262;2022-07-11T01:01:25;1.70;;;1.60;;
12076;SDS011;12420;42.676;23.262;2022-07-11T01:03:52;1.50;;;1.50;;
12076;SDS011;12420;42.676;23.262;2022-07-11T01:06:19;1.73;;;1.63;;
12076;SDS011;12420;42.676;23.262;2022-07-11T01:08:47;2.37;;;1.60;;
12076;SDS011;12420;42.676;23.262;2022-07-11T01:11:15;1.87;;;1.70;;
12076;SDS011;12420;42.676;23.262;2022-07-11T01:13:44;2.00;;;1.80;;
12076;SDS011;12420;42.676;23.262;2022-07-11T01:16:12;2.43;;;1.50;;
12076;SDS011;12420;42.676;23.262;2022-07-11T01:18:43;1.50;;;1.50;;
12076;SDS011;12420;42.676;23.262;2022-07-11T01:21:18;1.60;;;1.50;;
12076;SDS011;12420;42.676;23.262;2022-07-11T01:23:50;1.80;;;1.70;;
12076;SDS011;12420;42.676;23.262;2022-07-11T01:26:19;1.60;;;1.50;;
12076;SDS011;12420;42.676;23.262;2022-07-11T01:28:47;1.50;;;1.40;;
12076;SDS011;12420;42.676;23.262;2022-07-11T01:31:14;3.20;;;1.63;;
12076;SDS011;12420;42.676;23.262;2022-07-11T01:33:41;1.63;;;1.57;;
12076;SDS011;12420;42.676;23.262;2022-07-11T01:36:08;1.70;;;1.60;;
12076;SDS011;12420;42.676;23.262;2022-07-11T01:38:35;1.47;;;1.47;;
12076;SDS011;12420;42.676;23.262;2022-07-11T01:41:04;1.70;;;1.60;;
12076;SDS011;12420;42.676;23.262;2022-07-11T01:43:30;1.63;;;1.30;;
12076;SDS011;12420;42.676;23.262;2022-07-11T01:45:57;1.70;;;1.60;;
12076;SDS011;12420;42.676;23.262;2022-07-11T01:48:24;3.63;;;1.70;;
12076;SDS011;12420;42.676;23.262;2022-07-11T01:50:51;3.47;;;1.40;;
12076;SDS011;12420;42.676;23.262;2022-07-11T01:53:18;2.87;;;1.50;;
12076;SDS011;12420;42.676;23.262;2022-07-11T01:55:45;1.50;;;1.37;;
12076;SDS011;12420;42.676;23.262;2022-07-11T01:58:13;1.60;;;1.50;;
12076;SDS011;12420;42.676;23.262;2022-07-11T02:00:40;1.87;;;1.77;;
12076;SDS011;12420;42.676;23.262;2022-07-11T02:03:07;1.70;;;1.50;;
12076;SDS011;12420;42.676;23.262;2022-07-11T02:05:34;1.73;;;1.50;;
12076;SDS011;12420;42.676;23.262;2022-07-11T02:08:04;4.33;;;1.60;;
12076;SDS011;12420;42.676;23.262;2022-07-11T02:10:42;1.67;;;1.53;;
12076;SDS011;12420;42.676;23.262;2022-07-11T02:13:10;3.80;;;1.50;;
12076;SDS011;12420;42.676;23.262;2022-07-11T02:15:40;1.60;;;1.50;;
12076;SDS011;12420;42.676;23.262;2022-07-11T02:18:10;5.20;;;1.50;;
12076;SDS011;12420;42.676;23.262;2022-07-11T02:20:38;1.90;;;1.77;;
12076;SDS011;12420;42.676;23.262;2022-07-11T02:23:05;2.27;;;1.67;;
12076;SDS011;12420;42.676;23.262;2022-07-11T02:25:32;1.80;;;1.70;;
12076;SDS011;12420;42.676;23.262;2022-07-11T02:28:03;1.93;;;1.60;;
12076;SDS011;12420;42.676;23.262;2022-07-11T02:30:33;1.60;;;1.50;;
12076;SDS011;12420;42.676;23.262;2022-07-11T02:33:01;3.90;;;1.70;;
12076;SDS011;12420;42.676;23.262;2022-07-11T02:35:28;1.63;;;1.52;;
12076;SDS011;12420;42.676;23.262;2022-07-11T02:37:55;1.80;;;1.70;;
12076;SDS011;12420;42.676;23.262;2022-07-11T02:40:22;2.23;;;2.00;;
12076;SDS011;12420;42.676;23.262;2022-07-11T02:42:51;1.50;;;1.40;;
12076;SDS011;12420;42.676;23.262;2022-07-11T02:45:18;1.60;;;1.50;;
12076;SDS011;12420;42.676;23.262;2022-07-11T02:47:47;1.87;;;1.77;;
12076;SDS011;12420;42.676;23.262;2022-07-11T02:50:16;3.63;;;1.60;;
12076;SDS011;12420;42.676;23.262;2022-07-11T02:52:46;3.73;;;1.60;;
12076;SDS011;12420;42.676;23.262;2022-07-11T02:55:13;2.40;;;1.50;;
12076;SDS011;12420;42.676;23.262;2022-07-11T02:57:40;1.50;;;1.50;;
12076;SDS011;12420;42.676;23.262;2022-07-11T03:00:09;1.63;;;1.53;;
12076;SDS011;12420;42.676;23.262;2022-07-11T03:02:38;1.50;;;1.50;;
12076;SDS011;12420;42.676;23.262;2022-07-11T03:05:05;2.83;;;1.90;;
12076;SDS011;12420;42.676;23.262;2022-07-11T03:07:34;1.70;;;1.60;;
12076;SDS011;12420;42.676;23.262;2022-07-11T03:10:01;1.87;;;1.70;;
12076;SDS011;12420;42.676;23.262;2022-07-11T03:12:29;1.60;;;1.50;;
12076;SDS011;12420;42.676;23.262;2022-07-11T03:14:55;3.53;;;1.50;;
12076;SDS011;12420;42.676;23.262;2022-07-11T03:17:22;1.90;;;1.40;;
12076;SDS011;12420;42.676;23.262;2022-07-11T03:19:49;2.57;;;1.70;;
12076;SDS011;12420;42.676;23.262;2022-07-11T03:22:16;1.70;;;1.60;;
12076;SDS011;12420;42.676;23.262;2022-07-11T03:24:45;2.43;;;1.60;;
12076;SDS011;12420;42.676;23.262;2022-07-11T03:27:12;1.50;;;1.40;;
12076;SDS011;12420;42.676;23.262;2022-07-11T03:29:38;1.57;;;1.53;;
12076;SDS011;12420;42.676;23.262;2022-07-11T03:32:06;1.80;;;1.47;;
12076;SDS011;12420;42.676;23.262;2022-07-11T03:34:33;2.10;;;1.60;;
12076;SDS011;12420;42.676;23.262;2022-07-11T03:37:00;2.23;;;1.50;;
12076;SDS011;12420;42.676;23.262;2022-07-11T03:39:28;2.47;;;1.60;;
12076;SDS011;12420;42.676;23.262;2022-07-11T03:41:56;1.93;;;1.60;;
12076;SDS011;12420;42.676;23.262;2022-07-11T03:44:23;1.70;;;1.60;;
12076;SDS011;12420;42.676;23.262;2022-07-11T03:46:59;3.57;;;1.87;;
12076;SDS011;12420;42.676;23.262;2022-07-11T03:49:28;2.20;;;1.60;;
12076;SDS011;12420;42.676;23.262;2022-07-11T03:51:55;1.50;;;1.50;;
12076;SDS011;12420;42.676;23.262;2022-07-11T03:54:22;1.90;;;1.80;;
12076;SDS011;12420;42.676;23.262;2022-07-11T03:56:49;1.63;;;1.53;;
12076;SDS011;12420;42.676;23.262;2022-07-11T03:59:18;1.80;;;1.70;;
12076;SDS011;12420;42.676;23.262;2022-07-11T04:01:45;3.70;;;1.50;;
12076;SDS011;12420;42.676;23.262;2022-07-11T04:04:12;1.80;;;1.70;;
12076;SDS011;12420;42.676;23.262;2022-07-11T04:06:39;4.57;;;1.73;;
12076;SDS011;12420;42.676;23.262;2022-07-11T04:09:07;5.17;;;1.63;;
12076;SDS011;12420;42.676;23.262;2022-07-11T04:11:35;1.73;;;1.60;;
12076;SDS011;12420;42.676;23.262;2022-07-11T04:14:02;4.13;;;1.70;;
12076;SDS011;12420;42.676;23.262;2022-07-11T04:16:30;2.30;;;1.53;;
12076;SDS011;12420;42.676;23.262;2022-07-11T04:18:57;1.90;;;1.70;;
12076;SDS011;12420;42.676;23.262;2022-07-11T04:21:24;2.83;;;1.80;;
12076;SDS011;12420;42.676;23.262;2022-07-11T04:23:51;3.17;;;1.70;;
12076;SDS011;12420;42.676;23.262;2022-07-11T04:26:18;2.40;;;2.20;;
12076;SDS011;12420;42.676;23.262;2022-07-11T04:28:45;3.83;;;1.90;;
12076;SDS011;12420;42.676;23.262;2022-07-11T04:31:11;3.43;;;1.70;;
12076;SDS011;12420;42.676;23.262;2022-07-11T04:33:40;2.17;;;1.97;;
12076;SDS011;12420;42.676;23.262;2022-07-11T04:36:07;4.13;;;2.10;;
12076;SDS011;12420;42.676;23.262;2022-07-11T04:38:33;1.87;;;1.77;;
12076;SDS011;12420;42.676;23.262;2022-07-11T04:41:00;4.10;;;1.90;;
12076;SDS011;12420;42.676;23.262;2022-07-11T04:43:27;2.10;;;1.83;;
12076;SDS011;12420;42.676;23.262;2022-07-11T04:45:54;3.37;;;2.07;;
12076;SDS011;12420;42.676;23.262;2022-07-11T04:48:21;1.97;;;1.87;;
12076;SDS011;12420;42.676;23.262;2022-07-11T04:50:49;3.00;;;2.20;;
12076;SDS011;12420;42.676;23.262;2022-07-11T04:53:16;2.27;;;2.03;;
12076;SDS011;12420;42.676;23.262;2022-07-11T04:55:43;5.40;;;2.10;;
12076;SDS011;12420;42.676;23.262;2022-07-11T04:58:10;2.00;;;1.90;;
12076;SDS011;12420;42.676;23.262;2022-07-11T05:00:37;2.20;;;2.00;;
12076;SDS011;12420;42.676;23.262;2022-07-11T05:03:03;2.53;;;2.13;;
12076;SDS011;12420;42.676;23.262;2022-07-11T05:05:33;6.73;;;2.10;;
12076;SDS011;12420;42.676;23.262;2022-07-11T05:08:01;2.63;;;1.93;;
12076;SDS011;12420;42.676;23.262;2022-07-11T05:10:29;2.10;;;2.00;;
12076;SDS011;12420;42.676;23.262;2022-07-11T05:12:58;4.27;;;2.00;;
12076;SDS011;12420;42.676;23.262;2022-07-11T05:15:25;2.67;;;2.03;;
12076;SDS011;12420;42.676;23.262;2022-07-11T05:17:52;4.30;;;2.00;;
12076;SDS011;12420;42.676;23.262;2022-07-11T05:20:19;4.60;;;2.10;;
12076;SDS011;12420;42.676;23.262;2022-07-11T05:22:46;2.10;;;2.00;;
12076;SDS011;12420;42.676;23.262;2022-07-11T05:25:14;3.37;;;2.20;;
12076;SDS011;12420;42.676;23.262;2022-07-11T05:27:43;3.70;;;2.03;;
12076;SDS011;12420;42.676;23.262;2022-07-11T05:30:12;2.57;;;1.80;;
12076;SDS011;12420;42.676;23.262;2022-07-11T05:32:39;1.80;;;1.70;;
12076;SDS011;12420;42.676;23.262;2022-07-11T05:35:07;5.60;;;1.90;;
12076;SDS011;12420;42.676;23.262;2022-07-11T05:37:34;2.00;;;1.70;;
12076;SDS011;12420;42.676;23.262;2022-07-11T05:40:01;1.83;;;1.50;;
12076;SDS011;12420;42.676;23.262;2022-07-11T05:42:30;2.00;;;1.60;;
12076;SDS011;12420;42.676;23.262;2022-07-11T05:44:57;3.07;;;2.00;;
12076;SDS011;12420;42.676;23.262;2022-07-11T05:47:24;4.37;;;1.53;;
12076;SDS011;12420;42.676;23.262;2022-07-11T05:49:51;3.37;;;1.30;;
12076;SDS011;12420;42.676;23.262;2022-07-11T05:52:18;1.70;;;1.00;;
12076;SDS011;12420;42.676;23.262;2022-07-11T05:54:45;1.70;;;1.40;;
12076;SDS011;12420;42.676;23.262;2022-07-11T05:57:12;2.57;;;1.33;;
12076;SDS011;12420;42.676;23.262;2022-07-11T05:59:40;1.40;;;1.03;;
12076;SDS011;12420;42.676;23.262;2022-07-11T06:02:07;2.77;;;1.30;;
12076;SDS011;12420;42.676;23.262;2022-07-11T06:04:34;1.27;;;1.10;;
12076;SDS011;12420;42.676;23.262;2022-07-11T06:07:02;6.03;;;1.07;;
12076;SDS011;12420;42.676;23.262;2022-07-11T06:09:29;3.33;;;1.17;;
12076;SDS011;12420;42.676;23.262;2022-07-11T06:11:55;1.37;;;1.27;;
12076;SDS011;12420;42.676;23.262;2022-07-11T06:14:22;4.87;;;1.13;;
12076;SDS011;12420;42.676;23.262;2022-07-11T06:16:51;1.33;;;1.20;;
12076;SDS011;12420;42.676;23.262;2022-07-11T06:19:18;1.92;;;1.17;;
12076;SDS011;12420;42.676;23.262;2022-07-11T06:21:45;4.27;;;1.47;;
12076;SDS011;12420;42.676;23.262;2022-07-11T06:24:12;4.20;;;1.27;;
12076;SDS011;12420;42.676;23.262;2022-07-11T06:26:39;2.17;;;1.10;;
12076;SDS011;12420;42.676;23.262;2022-07-11T06:29:05;2.20;;;1.10;;
12076;SDS011;12420;42.676;23.262;2022-07-11T06:31:33;1.00;;;1.00;;
12076;SDS011;12420;42.676;23.262;2022-07-11T06:34:01;0.80;;;0.80;;
12076;SDS011;12420;42.676;23.262;2022-07-11T06:36:29;0.80;;;0.80;;
12076;SDS011;12420;42.676;23.262;2022-07-11T06:38:55;1.17;;;1.07;;
12076;SDS011;12420;42.676;23.262;2022-07-11T06:41:24;1.20;;;1.10;;
12076;SDS011;12420;42.676;23.262;2022-07-11T06:43:51;3.27;;;1.20;;
12076;SDS011;12420;42.676;23.262;2022-07-11T06:46:18;1.00;;;1.00;;
12076;SDS011;12420;42.676;23.262;2022-07-11T06:48:47;1.07;;;1.07;;
12076;SDS011;12420;42.676;23.262;2022-07-11T06:51:15;2.53;;;1.10;;
12076;SDS011;12420;42.676;23.262;2022-07-11T06:53:42;1.87;;;0.93;;
12076;SDS011;12420;42.676;23.262;2022-07-11T06:56:09;2.70;;;1.10;;
12076;SDS011;12420;42.676;23.262;2022-07-11T06:58:36;1.10;;;1.00;;
12076;SDS011;12420;42.676;23.262;2022-07-11T07:01:03;1.30;;;0.90;;
12076;SDS011;12420;42.676;23.262;2022-07-11T07:03:31;1.13;;;0.90;;
12076;SDS011;12420;42.676;23.262;2022-07-11T07:05:59;0.80;;;0.80;;
12076;SDS011;12420;42.676;23.262;2022-07-11T07:08:32;1.00;;;1.00;;
12076;SDS011;12420;42.676;23.262;2022-07-11T07:10:59;1.20;;;1.00;;
12076;SDS011;12420;42.676;23.262;2022-07-11T07:13:26;0.90;;;0.90;;
12076;SDS011;12420;42.676;23.262;2022-07-11T07:15:54;1.17;;;0.97;;
12076;SDS011;12420;42.676;23.262;2022-07-11T07:18:21;1.23;;;1.00;;
12076;SDS011;12420;42.676;23.262;2022-07-11T07:20:48;1.70;;;1.20;;
12076;SDS011;12420;42.676;23.262;2022-07-11T07:23:15;1.23;;;1.07;;
12076;SDS011;12420;42.676;23.262;2022-07-11T07:25:44;3.00;;;1.27;;
12076;SDS011;12420;42.676;23.262;2022-07-11T07:28:11;2.60;;;1.20;;
12076;SDS011;12420;42.676;23.262;2022-07-11T07:30:37;2.63;;;1.00;;
12076;SDS011;12420;42.676;23.262;2022-07-11T07:33:04;2.93;;;1.30;;
12076;SDS011;12420;42.676;23.262;2022-07-11T07:35:31;1.00;;;1.00;;
12076;SDS011;12420;42.676;23.262;2022-07-11T07:37:58;2.67;;;1.00;;
12076;SDS011;12420;42.676;23.262;2022-07-11T07:40:30;0.90;;;0.90;;
12076;SDS011;12420;42.676;23.262;2022-07-11T07:42:58;2.83;;;1.20;;
12076;SDS011;12420;42.676;23.262;2022-07-11T07:45:26;1.00;;;1.00;;
12076;SDS011;12420;42.676;23.262;2022-07-11T07:47:53;1.43;;;0.97;;
12076;SDS011;12420;42.676;23.262;2022-07-11T07:50:20;1.73;;;0.90;;
12076;SDS011;12420;42.676;23.262;2022-07-11T07:52:47;1.20;;;1.20;;
12076;SDS011;12420;42.676;23.262;2022-07-11T07:55:14;1.20;;;1.10;;
12076;SDS011;12420;42.676;23.262;2022-07-11T07:57:40;2.07;;;1.00;;
12076;SDS011;12420;42.676;23.262;2022-07-11T08:00:10;0.90;;;0.90;;
12076;SDS011;12420;42.676;23.262;2022-07-11T08:02:55;1.40;;;1.20;;
12076;SDS011;12420;42.676;23.262;2022-07-11T08:05:21;6.07;;;1.00;;
12076;SDS011;12420;42.676;23.262;2022-07-11T08:07:50;2.53;;;1.13;;
12076;SDS011;12420;42.676;23.262;2022-07-11T08:10:17;2.27;;;0.90;;
12076;SDS011;12420;42.676;23.262;2022-07-11T08:12:43;1.10;;;1.00;;
12076;SDS011;12420;42.676;23.262;2022-07-11T08:15:12;1.63;;;0.97;;
12076;SDS011;12420;42.676;23.262;2022-07-11T08:17:39;3.70;;;1.00;;
12076;SDS011;12420;42.676;23.262;2022-07-11T08:20:07;2.37;;;1.10;;
12076;SDS011;12420;42.676;23.262;2022-07-11T08:22:34;0.90;;;0.90;;
12076;SDS011;12420;42.676;23.262;2022-07-11T08:25:01;6.07;;;1.37;;
12076;SDS011;12420;42.676;23.262;2022-07-11T08:27:28;2.13;;;1.00;;
12076;SDS011;12420;42.676;23.262;2022-07-11T08:29:55;3.63;;;1.07;;
12076;SDS011;12420;42.676;23.262;2022-07-11T08:32:25;2.50;;;1.00;;
12076;SDS011;12420;42.676;23.262;2022-07-11T08:34:51;1.33;;;1.10;;
12076;SDS011;12420;42.676;23.262;2022-07-11T08:37:18;1.73;;;0.90;;
12076;SDS011;12420;42.676;23.262;2022-07-11T08:39:45;3.07;;;1.20;;
12076;SDS011;12420;42.676;23.262;2022-07-11T08:42:12;1.80;;;1.07;;
12076;SDS011;12420;42.676;23.262;2022-07-11T08:44:39;1.00;;;1.00;;
12076;SDS011;12420;42.676;23.262;2022-07-11T08:47:07;2.37;;;1.00;;
12076;SDS011;12420;42.676;23.262;2022-07-11T08:49:37;1.10;;;1.10;;
12076;SDS011;12420;42.676;23.262;2022-07-11T08:52:05;1.43;;;1.00;;
12076;SDS011;12420;42.676;23.262;2022-07-11T08:54:33;1.13;;;1.00;;
12076;SDS011;12420;42.676;23.262;2022-07-11T08:57:00;3.47;;;1.07;;
12076;SDS011;12420;42.676;23.262;2022-07-11T08:59:31;1.07;;;1.00;;
12076;SDS011;12420;42.676;23.262;2022-07-11T09:02:07;1.17;;;0.87;;
12076;SDS011;12420;42.676;23.262;2022-07-11T09:04:37;1.00;;;0.87;;
12076;SDS011;12420;42.676;23.262;2022-07-11T09:07:05;1.33;;;0.90;;
12076;SDS011;12420;42.676;23.262;2022-07-11T09:09:32;1.53;;;1.00;;
12076;SDS011;12420;42.676;23.262;2022-07-11T09:11:59;1.90;;;1.03;;
12076;SDS011;12420;42.676;23.262;2022-07-11T09:14:29;3.13;;;1.00;;
12076;SDS011;12420;42.676;23.262;2022-07-11T09:16:58;1.97;;;1.00;;
12076;SDS011;12420;42.676;23.262;2022-07-11T09:19:27;5.50;;;1.10;;
12076;SDS011;12420;42.676;23.262;2022-07-11T09:21:57;2.05;;;0.98;;
12076;SDS011;12420;42.676;23.262;2022-07-11T09:24:51;2.30;;;1.00;;
12076;SDS011;12420;42.676;23.262;2022-07-11T09:27:41;2.30;;;0.90;;
12076;SDS011;12420;42.676;23.262;2022-07-11T09:30:16;1.97;;;1.00;;
12076;SDS011;12420;42.676;23.262;2022-07-11T09:32:54;4.43;;;0.90;;
12076;SDS011;12420;42.676;23.262;2022-07-11T09:35:23;1.67;;;1.00;;
12076;SDS011;12420;42.676;23.262;2022-07-11T09:37:52;1.47;;;0.80;;
12076;SDS011;12420;42.676;23.262;2022-07-11T09:40:19;0.93;;;0.90;;
12076;SDS011;12420;42.676;23.262;2022-07-11T09:42:48;0.93;;;0.93;;
12076;SDS011;12420;42.676;23.262;2022-07-11T09:45:16;1.37;;;1.00;;
12076;SDS011;12420;42.676;23.262;2022-07-11T09:47:44;1.13;;;1.03;;
12076;SDS011;12420;42.676;23.262;2022-07-11T09:50:12;2.13;;;0.93;;
12076;SDS011;12420;42.676;23.262;2022-07-11T09:52:41;0.87;;;0.87;;
12076;SDS011;12420;42.676;23.262;2022-07-11T09:55:11;0.90;;;0.90;;
12076;SDS011;12420;42.676;23.262;2022-07-11T09:57:38;3.27;;;1.00;;
12076;SDS011;12420;42.676;23.262;2022-07-11T10:00:06;1.60;;;0.97;;
12076;SDS011;12420;42.676;23.262;2022-07-11T10:02:35;3.03;;;1.00;;
12076;SDS011;12420;42.676;23.262;2022-07-11T10:05:02;1.90;;;0.90;;
12076;SDS011;12420;42.676;23.262;2022-07-11T10:07:30;2.07;;;1.00;;
12076;SDS011;12420;42.676;23.262;2022-07-11T10:09:58;6.93;;;1.13;;
12076;SDS011;12420;42.676;23.262;2022-07-11T10:12:27;1.43;;;1.00;;
12076;SDS011;12420;42.676;23.262;2022-07-11T10:14:57;1.00;;;0.87;;
12076;SDS011;12420;42.676;23.262;2022-07-11T10:17:26;1.13;;;1.00;;
12076;SDS011;12420;42.676;23.262;2022-07-11T10:19:57;1.37;;;0.90;;
12076;SDS011;12420;42.676;23.262;2022-07-11T10:22:33;1.20;;;1.10;;
12076;SDS011;12420;42.676;23.262;2022-07-11T10:25:06;2.10;;;1.00;;
12076;SDS011;12420;42.676;23.262;2022-07-11T10:27:47;0.90;;;0.90;;
12076;SDS011;12420;42.676;23.262;2022-07-11T10:30:44;1.40;;;1.03;;
12076;SDS011;12420;42.676;23.262;2022-07-11T10:33:16;1.10;;;1.00;;
12076;SDS011;12420;42.676;23.262;2022-07-11T10:35:44;3.73;;;0.90;;
12076;SDS011;12420;42.676;23.262;2022-07-11T10:38:12;1.60;;;0.70;;
12076;SDS011;12420;42.676;23.262;2022-07-11T10:40:40;0.80;;;0.80;;
12076;SDS011;12420;42.676;23.262;2022-07-11T10:43:09;3.03;;;1.00;;
12076;SDS011;12420;42.676;23.262;2022-07-11T10:45:49;2.20;;;1.00;;
12076;SDS011;12420;42.676;23.262;2022-07-11T10:48:20;1.10;;;1.00;;
12076;SDS011;12420;42.676;23.262;2022-07-11T10:50:48;1.13;;;1.10;;
12076;SDS011;12420;42.676;23.262;2022-07-11T10:53:21;1.10;;;1.00;;
12076;SDS011;12420;42.676;23.262;2022-07-11T10:55:53;4.97;;;1.10;;
12076;SDS011;12420;42.676;23.262;2022-07-11T10:58:30;0.80;;;0.80;;
12076;SDS011;12420;42.676;23.262;2022-07-11T11:01:07;1.40;;;1.00;;
12076;SDS011;12420;42.676;23.262;2022-07-11T11:03:35;2.00;;;1.27;;
12076;SDS011;12420;42.676;23.262;2022-07-11T11:06:02;2.00;;;1.10;;
12076;SDS011;12420;42.676;23.262;2022-07-11T11:08:45;1.07;;;0.90;;
12076;SDS011;12420;42.676;23.262;2022-07-11T11:14:20;1.10;;;0.90;;
12076;SDS011;12420;42.676;23.262;2022-07-11T11:16:54;1.63;;;1.20;;
12076;SDS011;12420;42.676;23.262;2022-07-11T11:22:29;1.10;;;1.00;;
12076;SDS011;12420;42.676;23.262;2022-07-11T11:24:56;1.20;;;0.90;;
12076;SDS011;12420;42.676;23.262;2022-07-11T11:27:23;3.50;;;0.90;;
12076;SDS011;12420;42.676;23.262;2022-07-11T11:29:55;1.77;;;1.00;;
12076;SDS011;12420;42.676;23.262;2022-07-11T11:32:24;1.00;;;1.00;;
12076;SDS011;12420;42.676;23.262;2022-07-11T11:34:56;2.17;;;1.07;;
12076;SDS011;12420;42.676;23.262;2022-07-11T11:37:25;3.87;;;1.10;;
12076;SDS011;12420;42.676;23.262;2022-07-11T11:39:57;2.10;;;1.00;;
12076;SDS011;12420;42.676;23.262;2022-07-11T11:42:25;3.63;;;1.20;;
12076;SDS011;12420;42.676;23.262;2022-07-11T11:44:58;3.97;;;1.00;;
12076;SDS011;12420;42.676;23.262;2022-07-11T11:47:28;2.30;;;1.00;;
12076;SDS011;12420;42.676;23.262;2022-07-11T11:49:58;1.77;;;1.17;;
12076;SDS011;12420;42.676;23.262;2022-07-11T11:52:26;1.20;;;1.20;;
12076;SDS011;12420;42.676;23.262;2022-07-11T11:54:55;0.90;;;0.87;;
12076;SDS011;12420;42.676;23.262;2022-07-11T11:57:23;3.00;;;0.90;;
12076;SDS011;12420;42.676;23.262;2022-07-11T11:59:53;1.40;;;1.10;;
12076;SDS011;12420;42.676;23.262;2022-07-11T12:02:23;1.60;;;1.00;;
12076;SDS011;12420;42.676;23.262;2022-07-11T12:04:51;3.27;;;1.20;;
12076;SDS011;12420;42.676;23.262;2022-07-11T12:07:28;3.50;;;1.00;;
12076;SDS011;12420;42.676;23.262;2022-07-11T12:09:58;1.80;;;1.23;;
12076;SDS011;12420;42.676;23.262;2022-07-11T12:12:29;1.27;;;1.17;;
12076;SDS011;12420;42.676;23.262;2022-07-11T12:15:30;2.57;;;1.20;;
12076;SDS011;12420;42.676;23.262;2022-07-11T12:18:21;1.33;;;1.17;;
12076;SDS011;12420;42.676;23.262;2022-07-11T12:20:49;1.43;;;1.10;;
12076;SDS011;12420;42.676;23.262;2022-07-11T12:23:16;2.10;;;1.10;;
12076;SDS011;12420;42.676;23.262;2022-07-11T12:25:44;2.83;;;1.00;;
12076;SDS011;12420;42.676;23.262;2022-07-11T12:28:13;2.13;;;1.17;;
12076;SDS011;12420;42.676;23.262;2022-07-11T12:30:40;1.30;;;1.00;;
12076;SDS011;12420;42.676;23.262;2022-07-11T12:33:08;1.40;;;1.30;;
12076;SDS011;12420;42.676;23.262;2022-07-11T12:35:52;1.30;;;1.20;;
12076;SDS011;12420;42.676;23.262;2022-07-11T12:38:20;1.60;;;1.10;;
12076;SDS011;12420;42.676;23.262;2022-07-11T12:40:57;1.13;;;1.13;;
12076;SDS011;12420;42.676;23.262;2022-07-11T12:43:38;3.80;;;1.00;;
12076;SDS011;12420;42.676;23.262;2022-07-11T12:46:28;1.30;;;1.20;;
12076;SDS011;12420;42.676;23.262;2022-07-11T12:48:56;2.07;;;1.13;;
12076;SDS011;12420;42.676;23.262;2022-07-11T12:51:30;1.20;;;1.10;;
12076;SDS011;12420;42.676;23.262;2022-07-11T12:54:00;1.07;;;1.07;;
12076;SDS011;12420;42.676;23.262;2022-07-11T12:56:28;1.20;;;1.10;;
12076;SDS011;12420;42.676;23.262;2022-07-11T12:58:55;2.27;;;1.00;;
12076;SDS011;12420;42.676;23.262;2022-07-11T13:01:22;1.27;;;1.17;;
12076;SDS011;12420;42.676;23.262;2022-07-11T13:03:48;1.67;;;1.10;;
12076;SDS011;12420;42.676;23.262;2022-07-11T13:06:16;1.97;;;1.27;;
12076;SDS011;12420;42.676;23.262;2022-07-11T13:09:04;1.40;;;1.30;;
12076;SDS011;12420;42.676;23.262;2022-07-11T13:11:30;1.07;;;1.07;;
12076;SDS011;12420;42.676;23.262;2022-07-11T13:13:58;1.03;;;1.00;;
12076;SDS011;12420;42.676;23.262;2022-07-11T13:16:25;1.57;;;1.20;;
12076;SDS011;12420;42.676;23.262;2022-07-11T13:18:52;1.30;;;1.23;;
12076;SDS011;12420;42.676;23.262;2022-07-11T13:21:19;1.77;;;1.20;;
12076;SDS011;12420;42.676;23.262;2022-07-11T13:23:46;1.47;;;1.10;;
12076;SDS011;12420;42.676;23.262;2022-07-11T13:26:15;1.90;;;1.10;;
12076;SDS011;12420;42.676;23.262;2022-07-11T13:28:42;1.90;;;1.00;;
12076;SDS011;12420;42.676;23.262;2022-07-11T13:31:09;1.47;;;1.07;;
12076;SDS011;12420;42.676;23.262;2022-07-11T13:33:36;1.17;;;1.07;;
12076;SDS011;12420;42.676;23.262;2022-07-11T13:36:09;0.90;;;0.90;;
12076;SDS011;12420;42.676;23.262;2022-07-11T13:38:36;4.33;;;1.20;;
12076;SDS011;12420;42.676;23.262;2022-07-11T13:41:03;1.20;;;1.00;;
12076;SDS011;12420;42.676;23.262;2022-07-11T13:43:33;1.03;;;1.03;;
12076;SDS011;12420;42.676;23.262;2022-07-11T13:46:02;2.03;;;1.00;;
12076;SDS011;12420;42.676;23.262;2022-07-11T13:48:32;1.20;;;1.20;;
12076;SDS011;12420;42.676;23.262;2022-07-11T13:51:00;1.27;;;1.13;;
12076;SDS011;12420;42.676;23.262;2022-07-11T13:53:28;2.20;;;1.30;;
12076;SDS011;12420;42.676;23.262;2022-07-11T13:55:55;1.27;;;1.23;;
12076;SDS011;12420;42.676;23.262;2022-07-11T13:58:22;2.60;;;0.90;;
12076;SDS011;12420;42.676;23.262;2022-07-11T14:00:53;1.73;;;1.20;;
12076;SDS011;12420;42.676;23.262;2022-07-11T14:03:20;1.00;;;1.00;;
12076;SDS011;12420;42.676;23.262;2022-07-11T14:05:47;1.57;;;1.20;;
12076;SDS011;12420;42.676;23.262;2022-07-11T14:08:19;1.40;;;1.23;;
12076;SDS011;12420;42.676;23.262;2022-07-11T14:10:49;3.43;;;1.00;;
12076;SDS011;12420;42.676;23.262;2022-07-11T14:13:16;1.70;;;1.20;;
12076;SDS011;12420;42.676;23.262;2022-07-11T14:15:43;1.40;;;1.10;;
12076;SDS011;12420;42.676;23.262;2022-07-11T14:18:12;0.90;;;0.90;;
12076;SDS011;12420;42.676;23.262;2022-07-11T14:20:39;1.00;;;1.00;;
12076;SDS011;12420;42.676;23.262;2022-07-11T14:23:05;1.20;;;1.10;;
12076;SDS011;12420;42.676;23.262;2022-07-11T14:25:32;2.80;;;1.23;;
12076;SDS011;12420;42.676;23.262;2022-07-11T14:27:59;1.10;;;1.10;;
12076;SDS011;12420;42.676;23.262;2022-07-11T14:30:26;1.00;;;1.00;;
12076;SDS011;12420;42.676;23.262;2022-07-11T14:32:54;1.33;;;1.00;;
12076;SDS011;12420;42.676;23.262;2022-07-11T14:35:22;2.70;;;1.08;;
12076;SDS011;12420;42.676;23.262;2022-07-11T14:37:50;1.30;;;1.20;;
12076;SDS011;12420;42.676;23.262;2022-07-11T14:40:18;1.30;;;1.20;;
12076;SDS011;12420;42.676;23.262;2022-07-11T14:42:46;1.00;;;1.00;;
12076;SDS011;12420;42.676;23.262;2022-07-11T14:45:13;1.10;;;1.10;;
12076;SDS011;12420;42.676;23.262;2022-07-11T14:47:44;3.13;;;1.27;;
12076;SDS011;12420;42.676;23.262;2022-07-11T14:50:10;1.30;;;1.20;;